createdAt,value
2023-11-02T00:00:39.111Z,73.02
2023-11-02T00:01:39.053Z,72.72
2023-11-02T00:02:39.114Z,72.75
2023-11-02T00:03:39.099Z,73.36
2023-11-02T00:04:39.041Z,73.90
2023-11-02T00:05:39.044Z,74.33
2023-11-02T00:06:39.291Z,74.77
2023-11-02T00:07:39.017Z,74.84
2023-11-02T00:08:38.995Z,74.54
2023-11-02T00:09:38.979Z,74.30
2023-11-02T00:10:38.945Z,74.20
2023-11-02T00:11:39.021Z,74.37
2023-11-02T00:12:38.937Z,75.89
2023-11-02T00:13:38.923Z,75.69
2023-11-02T00:14:38.917Z,74.74
2023-11-02T00:15:38.932Z,74.04
2023-11-02T00:16:38.881Z,74.84
2023-11-02T00:17:38.994Z,74.51
2023-11-02T00:18:38.905Z,73.49
2023-11-02T00:19:38.950Z,73.90
2023-11-02T00:20:38.849Z,75.08
2023-11-02T00:21:38.824Z,74.88
2023-11-02T00:22:38.876Z,75.15
2023-11-02T00:23:38.838Z,74.64
2023-11-02T00:24:38.778Z,74.10
2023-11-02T00:25:38.800Z,74.74
2023-11-02T00:26:38.775Z,74.20
2023-11-02T00:27:38.807Z,73.80
2023-11-02T00:28:38.814Z,73.80
2023-11-02T00:29:38.767Z,73.46
2023-11-02T00:30:38.765Z,73.80
2023-11-02T00:31:38.752Z,74.00
2023-11-02T00:32:38.738Z,73.69
2023-11-02T00:33:38.872Z,73.59
2023-11-02T00:34:38.697Z,73.69
2023-11-02T00:35:38.674Z,73.59
2023-11-02T00:36:38.666Z,73.69
2023-11-02T00:37:38.630Z,73.49
2023-11-02T00:38:38.640Z,72.95
2023-11-02T00:39:38.620Z,72.85
2023-11-02T00:40:38.634Z,72.95
2023-11-02T00:41:38.627Z,72.75
2023-11-02T00:42:38.598Z,72.75
2023-11-02T00:43:38.677Z,73.19
2023-11-02T00:44:38.609Z,72.95
2023-11-02T00:45:38.584Z,72.75
2023-11-02T00:46:38.571Z,72.65
2023-11-02T00:47:38.616Z,72.75
2023-11-02T00:48:38.607Z,73.09
2023-11-02T00:49:38.514Z,73.39
2023-11-02T00:50:38.531Z,73.90
2023-11-02T00:51:38.480Z,73.39
2023-11-02T00:52:38.511Z,73.49
2023-11-02T00:53:38.478Z,73.29
2023-11-02T00:54:38.476Z,73.90
2023-11-02T00:55:38.567Z,74.04
2023-11-02T00:56:38.438Z,74.27
2023-11-02T00:57:38.425Z,74.68
2023-11-02T00:58:38.429Z,75.12
2023-11-02T00:59:38.388Z,74.88
2023-11-02T01:00:38.409Z,75.42
2023-11-02T01:01:38.386Z,74.88
2023-11-02T01:02:38.381Z,74.77
2023-11-02T01:03:38.411Z,75.32
2023-11-02T01:04:38.335Z,74.81
2023-11-02T01:05:38.347Z,74.57
2023-11-02T01:06:38.360Z,73.83
2023-11-02T01:07:38.366Z,74.30
2023-11-02T01:08:38.296Z,74.61
2023-11-02T01:09:38.313Z,75.12
2023-11-02T01:10:38.284Z,74.27
2023-11-02T01:11:38.272Z,74.10
2023-11-02T01:12:38.516Z,74.41
2023-11-02T01:13:38.257Z,74.41
2023-11-02T01:14:38.212Z,73.46
2023-11-02T01:15:38.226Z,73.66
2023-11-02T01:16:38.196Z,72.81
2023-11-02T01:17:38.192Z,73.16
2023-11-02T01:18:38.275Z,72.75
2023-11-02T01:19:38.160Z,73.36
2023-11-02T01:20:38.190Z,73.36
2023-11-02T01:21:38.144Z,73.36
2023-11-02T01:22:38.144Z,72.85
2023-11-02T01:23:38.154Z,73.25
2023-11-02T01:24:38.135Z,73.36
2023-11-02T01:25:38.090Z,72.61
2023-11-02T01:26:38.119Z,71.97
2023-11-02T01:27:38.083Z,71.73
2023-11-02T01:28:38.109Z,71.13
2023-11-02T01:29:38.098Z,71.33
2023-11-02T01:30:38.038Z,70.96
2023-11-02T01:31:38.159Z,71.60
2023-11-02T01:32:38.098Z,72.31
2023-11-02T01:33:38.177Z,71.67
2023-11-02T01:34:38.030Z,71.57
2023-11-02T01:35:37.984Z,71.30
2023-11-02T01:36:37.997Z,71.80
2023-11-02T01:37:38.005Z,72.31
2023-11-02T01:38:37.960Z,71.97
2023-11-02T01:39:37.936Z,71.91
2023-11-02T01:40:38.030Z,72.11
2023-11-02T01:41:37.948Z,72.45
2023-11-02T01:42:37.920Z,72.78
2023-11-02T01:43:37.924Z,73.49
2023-11-02T01:44:37.890Z,72.85
2023-11-02T01:45:37.922Z,72.61
2023-11-02T01:46:37.843Z,71.80
2023-11-02T01:47:37.865Z,72.75
2023-11-02T01:48:37.963Z,73.16
2023-11-02T01:49:37.880Z,72.75
2023-11-02T01:50:37.821Z,72.21
2023-11-02T01:51:37.809Z,71.57
2023-11-02T01:52:37.785Z,71.50
2023-11-02T01:53:37.808Z,71.70
2023-11-02T01:54:37.798Z,71.91
2023-11-02T01:55:37.810Z,72.01
2023-11-02T01:56:37.747Z,71.60
2023-11-02T01:57:37.724Z,71.80
2023-11-02T01:58:37.777Z,71.91
2023-11-02T01:59:37.777Z,71.80
2023-11-02T02:00:37.726Z,71.70
2023-11-02T02:01:37.674Z,71.16
2023-11-02T02:02:37.689Z,71.70
2023-11-02T02:03:37.831Z,72.34
2023-11-02T02:04:37.663Z,73.19
2023-11-02T02:05:37.801Z,73.93
2023-11-02T02:06:37.641Z,73.80
2023-11-02T02:07:37.645Z,73.39
2023-11-02T02:08:37.605Z,72.96
2023-11-02T02:09:37.616Z,72.45
2023-11-02T02:10:37.630Z,72.38
2023-11-02T02:11:37.651Z,73.09
2023-11-02T02:12:37.644Z,72.58
2023-11-02T02:13:37.597Z,73.19
2023-11-02T02:14:37.600Z,73.19
2023-11-02T02:15:37.621Z,73.19
2023-11-02T02:16:37.576Z,73.05
2023-11-02T02:17:37.639Z,72.75
2023-11-02T02:18:37.755Z,72.34
2023-11-02T02:19:37.541Z,72.11
2023-11-02T02:20:37.549Z,72.45
2023-11-02T02:21:37.590Z,72.58
2023-11-02T02:22:37.608Z,73.09
2023-11-02T02:23:37.494Z,72.99
2023-11-02T02:24:37.441Z,73.09
2023-11-02T02:25:37.450Z,72.85
2023-11-02T02:26:37.431Z,72.45
2023-11-02T02:27:37.440Z,72.24
2023-11-02T02:28:37.500Z,72.58
2023-11-02T02:29:37.363Z,72.78
2023-11-02T02:30:37.367Z,72.65
2023-11-02T02:31:37.343Z,72.24
2023-11-02T02:32:37.397Z,72.82
2023-11-02T02:33:37.404Z,73.63
2023-11-02T02:34:37.377Z,73.53
2023-11-02T02:35:37.298Z,73.12
2023-11-02T02:36:37.292Z,73.66
2023-11-02T02:37:37.266Z,74.17
2023-11-02T02:38:37.258Z,73.60
2023-11-02T02:39:37.246Z,72.99
2023-11-02T02:40:37.273Z,72.78
2023-11-02T02:41:37.234Z,72.89
2023-11-02T02:42:37.224Z,72.55
2023-11-02T02:43:37.221Z,72.38
2023-11-02T02:44:37.213Z,72.89
2023-11-02T02:45:37.192Z,72.65
2023-11-02T02:46:37.183Z,72.17
2023-11-02T02:47:37.296Z,72.68
2023-11-02T02:48:37.201Z,73.43
2023-11-02T02:49:37.155Z,72.99
2023-11-02T02:50:37.222Z,72.99
2023-11-02T02:51:37.115Z,73.02
2023-11-02T02:52:37.095Z,73.12
2023-11-02T02:53:37.124Z,72.99
2023-11-02T02:54:37.085Z,72.68
2023-11-02T02:55:37.097Z,72.24
2023-11-02T02:56:37.128Z,72.24
2023-11-02T02:57:37.061Z,72.38
2023-11-02T02:58:37.074Z,72.48
2023-11-02T02:59:37.071Z,72.48
2023-11-02T03:00:37.101Z,73.57
2023-11-02T03:01:36.998Z,73.53
2023-11-02T03:02:37.145Z,73.73
2023-11-02T03:03:37.039Z,73.66
2023-11-02T03:04:37.038Z,74.75
2023-11-02T03:05:37.090Z,75.19
2023-11-02T03:06:36.951Z,75.49
2023-11-02T03:07:37.305Z,75.05
2023-11-02T03:08:36.954Z,75.46
2023-11-02T03:09:36.907Z,74.01
2023-11-02T03:10:36.884Z,74.55
2023-11-02T03:11:36.886Z,74.31
2023-11-02T03:12:36.906Z,74.41
2023-11-02T03:13:36.890Z,74.21
2023-11-02T03:14:36.866Z,73.70
2023-11-02T03:15:36.864Z,74.10
2023-11-02T03:16:36.851Z,74.21
2023-11-02T03:17:36.849Z,74.10
2023-11-02T03:18:36.843Z,74.44
2023-11-02T03:19:36.898Z,74.55
2023-11-02T03:20:36.782Z,75.73
2023-11-02T03:21:36.828Z,75.70
2023-11-02T03:22:36.781Z,75.70
2023-11-02T03:23:36.739Z,76.10
2023-11-02T03:24:36.816Z,76.01
2023-11-02T03:25:36.733Z,75.94
2023-11-02T03:26:36.796Z,76.25
2023-11-02T03:27:36.694Z,75.90
2023-11-02T03:28:36.725Z,75.19
2023-11-02T03:29:36.688Z,75.63
2023-11-02T03:30:36.751Z,76.65
2023-11-02T03:31:36.653Z,76.55
2023-11-02T03:32:36.715Z,76.65
2023-11-02T03:33:36.681Z,76.86
2023-11-02T03:34:36.630Z,76.48
2023-11-02T03:35:36.676Z,76.86
2023-11-02T03:36:37.188Z,76.86
2023-11-02T03:37:36.616Z,76.99
2023-11-02T03:38:36.578Z,77.20
2023-11-02T03:39:36.568Z,77.06
2023-11-02T03:40:36.553Z,76.34
2023-11-02T03:41:36.608Z,76.55
2023-11-02T03:42:36.540Z,76.41
2023-11-02T03:43:36.539Z,75.49
2023-11-02T03:44:36.513Z,74.85
2023-11-02T03:45:36.550Z,74.41
2023-11-02T03:46:36.490Z,74.34
2023-11-02T03:47:36.518Z,74.75
2023-11-02T03:48:36.547Z,74.44
2023-11-02T03:49:36.457Z,73.60
2023-11-02T03:50:36.450Z,73.80
2023-11-02T03:51:36.429Z,73.80
2023-11-02T03:52:36.433Z,73.60
2023-11-02T03:53:36.430Z,73.60
2023-11-02T03:54:36.391Z,73.87
2023-11-02T03:55:36.395Z,73.19
2023-11-02T03:56:36.409Z,74.01
2023-11-02T03:57:36.381Z,73.80
2023-11-02T03:58:36.388Z,74.01
2023-11-02T03:59:36.341Z,73.80
2023-11-02T04:00:36.356Z,73.57
2023-11-02T04:01:36.320Z,73.16
2023-11-02T04:02:36.349Z,73.06
2023-11-02T04:03:36.320Z,73.50
2023-11-02T04:04:36.394Z,73.46
2023-11-02T04:05:36.329Z,72.96
2023-11-02T04:06:36.339Z,72.75
2023-11-02T04:07:36.258Z,72.11
2023-11-02T04:08:36.231Z,71.91
2023-11-02T04:09:36.227Z,72.61
2023-11-02T04:10:36.245Z,72.61
2023-11-02T04:11:36.252Z,72.17
2023-11-02T04:12:36.198Z,71.67
2023-11-02T04:13:36.194Z,71.47
2023-11-02T04:14:36.166Z,71.77
2023-11-02T04:15:36.257Z,72.34
2023-11-02T04:16:36.157Z,72.96
2023-11-02T04:17:36.387Z,72.61
2023-11-02T04:18:36.187Z,72.41
2023-11-02T04:19:36.138Z,72.45
2023-11-02T04:20:36.125Z,72.61
2023-11-02T04:21:36.116Z,72.52
2023-11-02T04:22:36.091Z,72.01
2023-11-02T04:23:36.070Z,72.11
2023-11-02T04:24:36.072Z,72.45
2023-11-02T04:25:36.041Z,73.46
2023-11-02T04:26:36.107Z,73.16
2023-11-02T04:27:36.123Z,73.36
2023-11-02T04:28:36.033Z,73.26
2023-11-02T04:29:36.003Z,73.87
2023-11-02T04:30:36.072Z,73.46
2023-11-02T04:31:36.009Z,73.87
2023-11-02T04:32:36.013Z,73.57
2023-11-02T04:33:36.048Z,74.62
2023-11-02T04:34:35.989Z,73.97
2023-11-02T04:35:35.947Z,73.97
2023-11-02T04:36:35.953Z,74.07
2023-11-02T04:37:35.930Z,74.48
2023-11-02T04:38:35.913Z,73.53
2023-11-02T04:39:35.991Z,73.77
2023-11-02T04:40:35.868Z,74.41
2023-11-02T04:41:35.857Z,74.24
2023-11-02T04:42:35.919Z,74.27
2023-11-02T04:43:35.858Z,74.68
2023-11-02T04:44:35.817Z,74.17
2023-11-02T04:45:35.901Z,74.78
2023-11-02T04:46:35.819Z,74.34
2023-11-02T04:47:35.906Z,74.14
2023-11-02T04:48:35.824Z,73.87
2023-11-02T04:49:35.931Z,74.27
2023-11-02T04:50:35.807Z,74.48
2023-11-02T04:51:35.762Z,74.07
2023-11-02T04:52:35.773Z,74.78
2023-11-02T04:53:35.725Z,74.88
2023-11-02T04:54:35.750Z,74.58
2023-11-02T04:55:35.699Z,75.16
2023-11-02T04:56:35.796Z,76.61
2023-11-02T04:57:35.716Z,76.37
2023-11-02T04:58:35.704Z,76.24
2023-11-02T04:59:35.670Z,75.97
2023-11-02T05:00:35.720Z,75.93
2023-11-02T05:01:35.695Z,75.93
2023-11-02T05:02:35.949Z,75.73
2023-11-02T05:03:35.741Z,76.21
2023-11-02T05:04:35.662Z,76.72
2023-11-02T05:05:35.649Z,76.72
2023-11-02T05:06:35.602Z,76.55
2023-11-02T05:07:35.610Z,76.75
2023-11-02T05:08:35.621Z,76.75
2023-11-02T05:09:35.639Z,76.51
2023-11-02T05:10:35.540Z,76.21
2023-11-02T05:11:35.543Z,76.51
2023-11-02T05:12:35.665Z,76.17
2023-11-02T05:13:35.507Z,75.67
2023-11-02T05:14:35.541Z,76.07
2023-11-02T05:15:35.590Z,76.14
2023-11-02T05:16:35.464Z,76.41
2023-11-02T05:17:35.468Z,75.80
2023-11-02T05:18:35.500Z,76.31
2023-11-02T05:19:35.501Z,76.25
2023-11-02T05:20:35.440Z,76.86
2023-11-02T05:21:35.431Z,76.41
2023-11-02T05:22:35.443Z,76.51
2023-11-02T05:23:35.373Z,76.61
2023-11-02T05:24:35.424Z,75.90
2023-11-02T05:25:35.389Z,76.61
2023-11-02T05:26:35.357Z,76.17
2023-11-02T05:27:35.414Z,75.52
2023-11-02T05:28:35.357Z,75.49
2023-11-02T05:29:35.325Z,75.87
2023-11-02T05:30:35.398Z,75.63
2023-11-02T05:31:35.342Z,75.12
2023-11-02T05:32:35.348Z,75.46
2023-11-02T05:33:35.295Z,75.97
2023-11-02T05:34:35.296Z,75.97
2023-11-02T05:35:35.291Z,76.51
2023-11-02T05:36:35.268Z,77.67
2023-11-02T05:37:35.270Z,77.53
2023-11-02T05:38:36.158Z,77.36
2023-11-02T05:39:35.323Z,77.36
2023-11-02T05:40:35.186Z,77.77
2023-11-02T05:41:35.232Z,77.67
2023-11-02T05:42:35.213Z,77.77
2023-11-02T05:43:37.480Z,77.56
2023-11-02T05:44:35.401Z,77.53
2023-11-02T05:45:35.166Z,77.29
2023-11-02T05:46:35.274Z,76.98
2023-11-02T05:47:35.282Z,76.72
2023-11-02T05:48:35.140Z,78.31
2023-11-02T05:49:35.255Z,78.58
2023-11-02T05:50:36.226Z,78.04
2023-11-02T05:51:35.300Z,77.53
2023-11-02T05:52:35.043Z,77.73
2023-11-02T05:53:35.056Z,77.67
2023-11-02T05:54:35.138Z,78.48
2023-11-02T05:55:35.012Z,78.92
2023-11-02T05:56:35.006Z,80.18
2023-11-02T05:57:35.135Z,80.29
2023-11-02T05:58:34.998Z,80.22
2023-11-02T05:59:34.976Z,80.79
2023-11-02T06:00:35.064Z,79.90
2023-11-02T06:01:34.947Z,79.84
2023-11-02T06:02:34.974Z,80.15
2023-11-02T06:03:35.078Z,79.74
2023-11-02T06:04:34.960Z,80.59
2023-11-02T06:05:34.922Z,81.10
2023-11-02T06:06:35.123Z,80.29
2023-11-02T06:07:34.874Z,81.20
2023-11-02T06:08:34.864Z,81.06
2023-11-02T06:09:34.911Z,80.79
2023-11-02T06:10:34.847Z,80.83
2023-11-02T06:11:34.920Z,81.81
2023-11-02T06:12:34.900Z,81.57
2023-11-02T06:13:34.829Z,80.51
2023-11-02T06:14:34.810Z,79.29
2023-11-02T06:15:34.830Z,80.59
2023-11-02T06:16:34.781Z,81.26
2023-11-02T06:17:34.798Z,80.76
2023-11-02T06:18:34.806Z,81.10
2023-11-02T06:19:34.834Z,81.71
2023-11-02T06:20:34.724Z,81.30
2023-11-02T06:21:34.807Z,81.46
2023-11-02T06:22:34.733Z,80.90
2023-11-02T06:23:34.712Z,81.26
2023-11-02T06:24:35.000Z,80.92
2023-11-02T06:25:34.689Z,80.41
2023-11-02T06:26:34.663Z,80.21
2023-11-02T06:27:34.666Z,80.35
2023-11-02T06:28:34.635Z,81.51
2023-11-02T06:29:34.693Z,82.12
2023-11-02T06:30:36.045Z,81.51
2023-11-02T06:31:34.758Z,81.37
2023-11-02T06:32:34.660Z,81.60
2023-11-02T06:33:35.466Z,81.57
2023-11-02T06:34:35.297Z,81.23
2023-11-02T06:35:34.606Z,81.06
2023-11-02T06:36:34.641Z,81.06
2023-11-02T06:37:34.567Z,81.46
2023-11-02T06:38:34.516Z,81.81
2023-11-02T06:39:34.606Z,81.77
2023-11-02T06:40:35.292Z,81.73
2023-11-02T06:41:34.662Z,81.12
2023-11-02T06:42:37.296Z,81.40
2023-11-02T06:43:34.730Z,82.07
2023-11-02T06:44:34.538Z,82.01
2023-11-02T06:45:34.685Z,82.12
2023-11-02T06:46:34.491Z,82.42
2023-11-02T06:47:34.680Z,82.28
2023-11-02T06:48:34.677Z,82.21
2023-11-02T06:49:34.565Z,83.03
2023-11-02T06:50:35.612Z,82.82
2023-11-02T06:51:34.853Z,82.79
2023-11-02T06:52:34.587Z,82.48
2023-11-02T06:53:34.788Z,82.38
2023-11-02T06:54:34.514Z,82.52
2023-11-02T06:55:34.484Z,83.34
2023-11-02T06:56:34.424Z,83.37
2023-11-02T06:57:34.497Z,83.78
2023-11-02T06:58:34.395Z,84.09
2023-11-02T06:59:34.382Z,84.29
2023-11-02T07:00:34.745Z,84.59
2023-11-02T07:01:34.384Z,84.70
2023-11-02T07:02:34.403Z,85.05
2023-11-02T07:03:34.553Z,85.31
2023-11-02T07:04:34.542Z,84.80
2023-11-02T07:05:34.372Z,84.90
2023-11-02T07:06:34.402Z,84.66
2023-11-02T07:07:35.205Z,84.90
2023-11-02T07:08:34.277Z,84.66
2023-11-02T07:09:34.278Z,84.25
2023-11-02T07:10:34.257Z,84.59
2023-11-02T07:11:34.301Z,85.45
2023-11-02T07:12:34.564Z,85.25
2023-11-02T07:13:34.242Z,85.82
2023-11-02T07:14:34.245Z,85.75
2023-11-02T07:15:35.128Z,86.27
2023-11-02T07:16:34.331Z,85.86
2023-11-02T07:17:34.342Z,85.66
2023-11-02T07:18:34.204Z,85.41
2023-11-02T07:19:34.235Z,85.21
2023-11-02T07:20:34.286Z,85.00
2023-11-02T07:21:34.175Z,85.75
2023-11-02T07:22:34.102Z,85.75
2023-11-02T07:23:34.040Z,85.51
2023-11-02T07:24:34.607Z,85.25
2023-11-02T07:25:34.179Z,85.72
2023-11-02T07:26:35.701Z,85.66
2023-11-02T07:27:34.244Z,85.21
2023-11-02T07:28:34.385Z,85.21
2023-11-02T07:29:34.061Z,85.21
2023-11-02T07:30:34.083Z,85.61
2023-11-02T07:31:34.163Z,85.66
2023-11-02T07:32:34.261Z,85.51
2023-11-02T07:33:34.074Z,85.11
2023-11-02T07:34:34.444Z,85.47
2023-11-02T07:35:34.085Z,85.25
2023-11-02T07:36:34.386Z,85.61
2023-11-02T07:37:34.148Z,85.21
2023-11-02T07:38:33.976Z,85.45
2023-11-02T07:39:34.583Z,85.86
2023-11-02T07:40:33.870Z,85.82
2023-11-02T07:41:34.018Z,85.41
2023-11-02T07:42:34.349Z,85.11
2023-11-02T07:43:34.100Z,85.31
2023-11-02T07:44:33.901Z,84.66
2023-11-02T07:45:34.262Z,85.11
2023-11-02T07:46:33.959Z,84.90
2023-11-02T07:47:33.813Z,84.84
2023-11-02T07:48:33.873Z,84.90
2023-11-02T07:49:33.922Z,84.50
2023-11-02T07:50:33.776Z,84.56
2023-11-02T07:51:33.961Z,84.11
2023-11-02T07:52:33.908Z,82.65
2023-11-02T07:53:33.781Z,82.28
2023-11-02T07:54:34.688Z,83.13
2023-11-02T07:55:33.662Z,83.40
2023-11-02T07:56:33.675Z,82.65
2023-11-02T07:57:33.865Z,81.90
2023-11-02T07:58:33.613Z,80.78
2023-11-02T07:59:33.672Z,81.98
2023-11-02T08:00:33.676Z,82.28
2023-11-02T08:01:33.630Z,81.98
2023-11-02T08:02:33.592Z,81.59
2023-11-02T08:03:33.766Z,80.30
2023-11-02T08:04:33.567Z,80.82
2023-11-02T08:05:33.560Z,81.93
2023-11-02T08:06:33.690Z,81.49
2023-11-02T08:07:33.581Z,80.54
2023-11-02T08:08:33.496Z,80.33
2023-11-02T08:09:33.506Z,80.54
2023-11-02T08:10:33.508Z,80.27
2023-11-02T08:11:33.467Z,81.45
2023-11-02T08:12:34.508Z,80.13
2023-11-02T08:13:33.491Z,80.24
2023-11-02T08:14:33.469Z,79.38
2023-11-02T08:15:33.410Z,79.72
2023-11-02T08:16:33.408Z,79.77
2023-11-02T08:17:33.507Z,80.62
2023-11-02T08:18:33.428Z,80.92
2023-11-02T08:19:33.423Z,80.64
2023-11-02T08:20:33.384Z,79.38
2023-11-02T08:21:33.384Z,79.12
2023-11-02T08:22:33.348Z,79.56
2023-11-02T08:23:33.329Z,80.58
2023-11-02T08:24:33.347Z,79.93
2023-11-02T08:25:33.355Z,79.59
2023-11-02T08:26:33.337Z,78.53
2023-11-02T08:27:33.350Z,78.37
2023-11-02T08:28:34.618Z,77.89
2023-11-02T08:29:33.267Z,77.32
2023-11-02T08:30:33.337Z,77.08
2023-11-02T08:31:33.231Z,77.66
2023-11-02T08:32:33.279Z,78.88
2023-11-02T08:33:33.335Z,78.88
2023-11-02T08:34:33.360Z,78.37
2023-11-02T08:35:33.193Z,78.98
2023-11-02T08:36:33.517Z,78.81
2023-11-02T08:37:33.208Z,79.63
2023-11-02T08:38:33.197Z,79.86
2023-11-02T08:39:34.352Z,79.72
2023-11-02T08:40:33.248Z,79.49
2023-11-02T08:41:33.904Z,77.86
2023-11-02T08:42:33.214Z,78.27
2023-11-02T08:43:33.119Z,77.62
2023-11-02T08:44:33.148Z,78.30
2023-11-02T08:45:33.125Z,78.91
2023-11-02T08:46:33.078Z,79.32
2023-11-02T08:47:33.180Z,78.78
2023-11-02T08:48:33.109Z,78.61
2023-11-02T08:49:33.105Z,78.37
2023-11-02T08:50:33.061Z,78.17
2023-11-02T08:51:33.042Z,78.27
2023-11-02T08:52:33.009Z,78.81
2023-11-02T08:53:32.978Z,78.88
2023-11-02T08:54:33.009Z,77.97
2023-11-02T08:55:33.046Z,78.91
2023-11-02T08:56:32.963Z,79.22
2023-11-02T08:57:32.982Z,79.36
2023-11-02T08:58:33.028Z,79.25
2023-11-02T08:59:32.964Z,79.16
2023-11-02T09:00:32.970Z,79.56
2023-11-02T09:01:33.028Z,78.88
2023-11-02T09:02:32.990Z,78.27
2023-11-02T09:03:32.876Z,78.71
2023-11-02T09:04:32.909Z,78.17
2023-11-02T09:05:32.855Z,78.27
2023-11-02T09:06:32.930Z,79.02
2023-11-02T09:07:32.863Z,78.95
2023-11-02T09:08:32.806Z,79.18
2023-11-02T09:09:32.849Z,77.83
2023-11-02T09:10:32.865Z,77.18
2023-11-02T09:11:32.778Z,76.84
2023-11-02T09:12:32.856Z,77.56
2023-11-02T09:13:32.805Z,77.72
2023-11-02T09:14:32.731Z,78.23
2023-11-02T09:15:32.802Z,77.62
2023-11-02T09:16:32.726Z,77.22
2023-11-02T09:17:32.758Z,78.17
2023-11-02T09:18:32.725Z,78.17
2023-11-02T09:19:32.770Z,78.51
2023-11-02T09:20:32.662Z,78.20
2023-11-02T09:21:32.745Z,78.67
2023-11-02T09:22:32.721Z,78.37
2023-11-02T09:23:32.634Z,78.57
2023-11-02T09:24:32.693Z,78.33
2023-11-02T09:25:32.666Z,77.72
2023-11-02T09:26:32.618Z,77.72
2023-11-02T09:27:32.659Z,76.87
2023-11-02T09:28:32.592Z,76.67
2023-11-02T09:29:33.327Z,77.32
2023-11-02T09:30:33.165Z,77.52
2023-11-02T09:31:32.763Z,78.23
2023-11-02T09:32:32.556Z,77.93
2023-11-02T09:33:32.631Z,77.83
2023-11-02T09:34:32.790Z,77.62
2023-11-02T09:35:32.551Z,77.93
2023-11-02T09:36:32.653Z,77.62
2023-11-02T09:37:32.519Z,77.72
2023-11-02T09:38:32.463Z,77.34
2023-11-02T09:39:32.496Z,76.67
2023-11-02T09:40:32.436Z,76.67
2023-11-02T09:41:32.517Z,77.18
2023-11-02T09:42:32.466Z,77.28
2023-11-02T09:43:32.405Z,76.84
2023-11-02T09:44:32.400Z,76.40
2023-11-02T09:45:32.513Z,75.99
2023-11-02T09:46:32.389Z,76.09
2023-11-02T09:47:32.406Z,75.35
2023-11-02T09:48:32.514Z,75.79
2023-11-02T09:49:32.370Z,75.79
2023-11-02T09:50:32.362Z,75.89
2023-11-02T09:51:32.361Z,76.20
2023-11-02T09:52:32.365Z,76.43
2023-11-02T09:53:32.310Z,76.57
2023-11-02T09:54:38.473Z,76.94
2023-11-02T09:55:33.332Z,76.70
2023-11-02T09:56:32.261Z,76.09
2023-11-02T09:57:32.281Z,75.76
2023-11-02T09:58:32.306Z,76.64
2023-11-02T09:59:32.219Z,76.60
2023-11-02T10:00:32.263Z,77.04
2023-11-02T10:01:32.193Z,76.33
2023-11-02T10:02:32.235Z,76.94
2023-11-02T10:03:32.289Z,77.38
2023-11-02T10:04:32.281Z,78.13
2023-11-02T10:05:32.227Z,78.09
2023-11-02T10:06:32.255Z,77.28
2023-11-02T10:07:32.133Z,77.89
2023-11-02T10:08:32.183Z,78.53
2023-11-02T10:09:32.175Z,78.64
2023-11-02T10:10:32.132Z,78.94
2023-11-02T10:11:32.145Z,78.09
2023-11-02T10:12:32.132Z,78.19
2023-11-02T10:13:32.060Z,77.86
2023-11-02T10:14:32.098Z,77.11
2023-11-02T10:15:32.136Z,76.67
2023-11-02T10:16:32.024Z,75.85
2023-11-02T10:17:32.133Z,75.15
2023-11-02T10:18:32.142Z,76.06
2023-11-02T10:19:32.078Z,75.76
2023-11-02T10:20:32.013Z,75.76
2023-11-02T10:21:32.081Z,75.65
2023-11-02T10:22:31.996Z,76.67
2023-11-02T10:23:32.024Z,77.21
2023-11-02T10:24:31.966Z,78.06
2023-11-02T10:25:31.948Z,78.12
2023-11-02T10:26:31.936Z,77.45
2023-11-02T10:27:32.137Z,78.33
2023-11-02T10:28:31.895Z,78.30
2023-11-02T10:29:32.018Z,77.86
2023-11-02T10:30:31.950Z,77.51
2023-11-02T10:31:32.084Z,76.87
2023-11-02T10:32:31.931Z,76.16
2023-11-02T10:33:31.928Z,75.42
2023-11-02T10:34:32.798Z,75.42
2023-11-02T10:35:31.819Z,75.96
2023-11-02T10:36:31.897Z,76.80
2023-11-02T10:37:31.862Z,77.34
2023-11-02T10:38:31.797Z,77.45
2023-11-02T10:39:31.816Z,78.16
2023-11-02T10:40:32.232Z,77.86
2023-11-02T10:41:31.802Z,78.22
2023-11-02T10:42:31.804Z,77.37
2023-11-02T10:43:31.723Z,76.12
2023-11-02T10:44:31.849Z,75.79
2023-11-02T10:45:31.822Z,75.18
2023-11-02T10:46:32.628Z,75.72
2023-11-02T10:47:32.072Z,75.52
2023-11-02T10:48:31.760Z,76.26
2023-11-02T10:49:31.694Z,76.26
2023-11-02T10:50:31.693Z,77.07
2023-11-02T10:51:31.726Z,76.53
2023-11-02T10:52:31.689Z,76.63
2023-11-02T10:53:31.688Z,76.43
2023-11-02T10:54:31.747Z,76.56
2023-11-02T10:55:31.612Z,76.63
2023-11-02T10:56:31.598Z,76.73
2023-11-02T10:57:31.601Z,76.32
2023-11-02T10:58:31.607Z,76.09
2023-11-02T10:59:32.443Z,75.99
2023-11-02T11:00:31.577Z,76.63
2023-11-02T11:01:31.584Z,76.39
2023-11-02T11:02:31.572Z,75.89
2023-11-02T11:03:31.646Z,76.50
2023-11-02T11:04:31.555Z,76.35
2023-11-02T11:05:31.478Z,75.85
2023-11-02T11:06:31.504Z,76.86
2023-11-02T11:07:31.535Z,76.26
2023-11-02T11:08:31.432Z,75.95
2023-11-02T11:09:31.466Z,75.51
2023-11-02T11:10:31.401Z,75.95
2023-11-02T11:11:31.409Z,76.26
2023-11-02T11:12:31.407Z,76.19
2023-11-02T11:13:31.432Z,77.00
2023-11-02T11:14:31.368Z,76.79
2023-11-02T11:15:31.381Z,76.09
2023-11-02T11:16:31.349Z,77.10
2023-11-02T11:17:31.382Z,75.95
2023-11-02T11:18:31.403Z,75.99
2023-11-02T11:19:31.374Z,75.92
2023-11-02T11:20:31.289Z,75.01
2023-11-02T11:21:31.303Z,75.58
2023-11-02T11:22:31.305Z,76.29
2023-11-02T11:23:31.270Z,75.75
2023-11-02T11:24:31.348Z,75.48
2023-11-02T11:25:31.259Z,75.51
2023-11-02T11:26:31.222Z,74.26
2023-11-02T11:27:31.260Z,74.23
2023-11-02T11:28:31.252Z,74.98
2023-11-02T11:29:31.196Z,76.09
2023-11-02T11:30:31.227Z,75.89
2023-11-02T11:31:31.247Z,75.82
2023-11-02T11:32:31.275Z,76.19
2023-11-02T11:33:31.179Z,75.34
2023-11-02T11:34:31.368Z,74.90
2023-11-02T11:35:31.173Z,75.28
2023-11-02T11:36:31.236Z,75.75
2023-11-02T11:37:31.225Z,75.18
2023-11-02T11:38:31.251Z,75.79
2023-11-02T11:39:31.156Z,75.55
2023-11-02T11:40:31.257Z,75.68
2023-11-02T11:41:31.102Z,75.79
2023-11-02T11:42:31.141Z,75.04
2023-11-02T11:43:31.038Z,74.74
2023-11-02T11:44:31.026Z,74.50
2023-11-02T11:45:31.014Z,74.90
2023-11-02T11:46:30.995Z,74.84
2023-11-02T11:47:31.012Z,75.68
2023-11-02T11:48:31.788Z,75.58
2023-11-02T11:49:31.025Z,75.68
2023-11-02T11:50:31.040Z,75.92
2023-11-02T11:51:30.961Z,76.43
2023-11-02T11:52:30.962Z,76.09
2023-11-02T11:53:31.047Z,75.55
2023-11-02T11:54:30.935Z,76.09
2023-11-02T11:55:30.907Z,76.09
2023-11-02T11:56:30.887Z,76.43
2023-11-02T11:57:31.458Z,77.24
2023-11-02T11:58:31.035Z,76.19
2023-11-02T11:59:30.878Z,75.99
2023-11-02T12:00:30.923Z,76.83
2023-11-02T12:01:30.886Z,76.50
2023-11-02T12:02:30.846Z,76.63
2023-11-02T12:03:30.837Z,76.05
2023-11-02T12:04:30.805Z,75.41
2023-11-02T12:05:30.911Z,75.28
2023-11-02T12:06:30.862Z,76.19
2023-11-02T12:07:30.845Z,76.70
2023-11-02T12:08:30.780Z,76.09
2023-11-02T12:09:30.789Z,75.75
2023-11-02T12:10:30.737Z,76.29
2023-11-02T12:11:30.755Z,76.12
2023-11-02T12:12:30.712Z,76.09
2023-11-02T12:13:30.864Z,76.29
2023-11-02T12:14:31.208Z,76.03
2023-11-02T12:15:30.772Z,76.63
2023-11-02T12:16:30.704Z,76.70
2023-11-02T12:17:30.710Z,75.92
2023-11-02T12:18:30.662Z,76.93
2023-11-02T12:19:31.367Z,75.55
2023-11-02T12:20:30.652Z,75.48
2023-11-02T12:21:30.646Z,75.68
2023-11-02T12:22:30.586Z,75.89
2023-11-02T12:23:30.612Z,75.79
2023-11-02T12:24:30.633Z,75.24
2023-11-02T12:25:30.578Z,76.53
2023-11-02T12:26:30.564Z,75.95
2023-11-02T12:27:30.530Z,75.45
2023-11-02T12:28:30.541Z,75.14
2023-11-02T12:29:30.541Z,74.74
2023-11-02T12:30:30.626Z,75.38
2023-11-02T12:31:30.527Z,75.04
2023-11-02T12:32:30.518Z,74.80
2023-11-02T12:33:30.515Z,74.40
2023-11-02T12:34:30.562Z,74.94
2023-11-02T12:35:30.434Z,75.68
2023-11-02T12:36:30.419Z,75.28
2023-11-02T12:37:31.004Z,75.58
2023-11-02T12:38:30.425Z,75.14
2023-11-02T12:39:30.406Z,74.50
2023-11-02T12:40:30.391Z,73.69
2023-11-02T12:41:30.362Z,74.30
2023-11-02T12:42:30.407Z,74.30
2023-11-02T12:43:30.450Z,75.07
2023-11-02T12:44:30.335Z,75.75
2023-11-02T12:45:30.341Z,75.10
2023-11-02T12:46:30.374Z,75.01
2023-11-02T12:47:30.342Z,74.80
2023-11-02T12:48:30.494Z,74.30
2023-11-02T12:49:30.388Z,74.10
2023-11-02T12:50:30.291Z,74.63
2023-11-02T12:51:30.525Z,74.50
2023-11-02T12:52:30.281Z,74.19